sensor_id;sensor_type;location;lat;lon;timestamp;temperature;humidity
69382;DHT22;56560;50.692;12.844;2023-08-06T00:01:53;15.00;84.40
69382;DHT22;56560;50.692;12.844;2023-08-06T00:04:19;14.90;84.30
69382;DHT22;56560;50.692;12.844;2023-08-06T00:06:45;14.90;84.30
69382;DHT22;56560;50.692;12.844;2023-08-06T00:09:10;14.90;84.40
69382;DHT22;56560;50.692;12.844;2023-08-06T00:11:36;14.90;84.30
69382;DHT22;56560;50.692;12.844;2023-08-06T00:14:01;14.90;84.50
69382;DHT22;56560;50.692;12.844;2023-08-06T00:16:27;14.90;84.30
69382;DHT22;56560;50.692;12.844;2023-08-06T00:18:52;14.80;84.40
69382;DHT22;56560;50.692;12.844;2023-08-06T00:21:18;14.80;84.50
69382;DHT22;56560;50.692;12.844;2023-08-06T00:23:44;14.80;84.50
69382;DHT22;56560;50.692;12.844;2023-08-06T00:26:09;14.80;84.40
69382;DHT22;56560;50.692;12.844;2023-08-06T00:28:35;14.70;84.90
69382;DHT22;56560;50.692;12.844;2023-08-06T00:31:00;14.70;85.00
69382;DHT22;56560;50.692;12.844;2023-08-06T00:33:26;14.70;85.40
69382;DHT22;56560;50.692;12.844;2023-08-06T00:35:52;14.60;85.20
69382;DHT22;56560;50.692;12.844;2023-08-06T00:38:17;14.60;85.00
69382;DHT22;56560;50.692;12.844;2023-08-06T00:40:43;14.60;85.10
69382;DHT22;56560;50.692;12.844;2023-08-06T00:43:09;14.50;85.40
69382;DHT22;56560;50.692;12.844;2023-08-06T00:45:36;14.50;85.60
69382;DHT22;56560;50.692;12.844;2023-08-06T00:48:03;14.50;85.50
69382;DHT22;56560;50.692;12.844;2023-08-06T00:50:29;14.50;85.50
69382;DHT22;56560;50.692;12.844;2023-08-06T00:52:55;14.50;85.40
69382;DHT22;56560;50.692;12.844;2023-08-06T00:55:20;14.50;85.60
69382;DHT22;56560;50.692;12.844;2023-08-06T00:57:46;14.50;85.70
69382;DHT22;56560;50.692;12.844;2023-08-06T01:00:12;14.50;85.70
69382;DHT22;56560;50.692;12.844;2023-08-06T01:02:38;14.50;85.80
69382;DHT22;56560;50.692;12.844;2023-08-06T01:05:03;14.50;85.70
69382;DHT22;56560;50.692;12.844;2023-08-06T01:10:23;14.60;85.20
69382;DHT22;56560;50.692;12.844;2023-08-06T01:12:59;14.60;84.90
69382;DHT22;56560;50.692;12.844;2023-08-06T01:15:35;14.70;84.60
69382;DHT22;56560;50.692;12.844;2023-08-06T01:18:03;14.70;84.30
69382;DHT22;56560;50.692;12.844;2023-08-06T01:20:30;14.70;84.70
69382;DHT22;56560;50.692;12.844;2023-08-06T01:22:56;14.70;84.40
69382;DHT22;56560;50.692;12.844;2023-08-06T01:25:33;14.80;84.20
69382;DHT22;56560;50.692;12.844;2023-08-06T01:28:07;14.80;84.40
69382;DHT22;56560;50.692;12.844;2023-08-06T01:30:40;14.70;84.50
69382;DHT22;56560;50.692;12.844;2023-08-06T01:33:09;14.70;84.60
69382;DHT22;56560;50.692;12.844;2023-08-06T01:35:40;14.70;84.80
69382;DHT22;56560;50.692;12.844;2023-08-06T01:38:06;14.80;84.70
69382;DHT22;56560;50.692;12.844;2023-08-06T01:40:31;14.80;84.50
69382;DHT22;56560;50.692;12.844;2023-08-06T01:42:58;14.80;84.30
69382;DHT22;56560;50.692;12.844;2023-08-06T01:45:24;14.80;84.60
69382;DHT22;56560;50.692;12.844;2023-08-06T01:47:49;14.80;84.60
69382;DHT22;56560;50.692;12.844;2023-08-06T01:50:15;14.80;84.30
69382;DHT22;56560;50.692;12.844;2023-08-06T01:52:40;14.80;84.00
69382;DHT22;56560;50.692;12.844;2023-08-06T01:55:06;14.80;84.40
69382;DHT22;56560;50.692;12.844;2023-08-06T01:57:32;14.70;84.50
69382;DHT22;56560;50.692;12.844;2023-08-06T01:59:58;14.70;84.80
69382;DHT22;56560;50.692;12.844;2023-08-06T02:02:23;14.70;85.00
69382;DHT22;56560;50.692;12.844;2023-08-06T02:04:49;14.70;84.70
69382;DHT22;56560;50.692;12.844;2023-08-06T02:07:14;14.80;84.40
69382;DHT22;56560;50.692;12.844;2023-08-06T02:09:41;14.80;84.10
69382;DHT22;56560;50.692;12.844;2023-08-06T02:12:07;14.90;84.00
69382;DHT22;56560;50.692;12.844;2023-08-06T02:14:33;14.90;83.60
69382;DHT22;56560;50.692;12.844;2023-08-06T02:16:59;15.00;83.60
69382;DHT22;56560;50.692;12.844;2023-08-06T02:19:25;15.00;83.80
69382;DHT22;56560;50.692;12.844;2023-08-06T02:21:50;15.00;83.80
69382;DHT22;56560;50.692;12.844;2023-08-06T02:24:16;15.00;83.60
69382;DHT22;56560;50.692;12.844;2023-08-06T02:26:41;15.00;83.70
69382;DHT22;56560;50.692;12.844;2023-08-06T02:29:07;15.00;84.20
69382;DHT22;56560;50.692;12.844;2023-08-06T02:31:33;14.90;84.40
69382;DHT22;56560;50.692;12.844;2023-08-06T02:33:58;15.00;84.40
69382;DHT22;56560;50.692;12.844;2023-08-06T02:36:24;15.00;84.20
69382;DHT22;56560;50.692;12.844;2023-08-06T02:38:50;15.00;84.80
69382;DHT22;56560;50.692;12.844;2023-08-06T02:41:16;15.00;85.20
69382;DHT22;56560;50.692;12.844;2023-08-06T02:43:41;15.00;84.50
69382;DHT22;56560;50.692;12.844;2023-08-06T02:46:07;15.00;84.70
69382;DHT22;56560;50.692;12.844;2023-08-06T02:48:32;15.00;84.70
69382;DHT22;56560;50.692;12.844;2023-08-06T02:50:59;15.10;84.90
69382;DHT22;56560;50.692;12.844;2023-08-06T02:53:25;15.10;84.90
69382;DHT22;56560;50.692;12.844;2023-08-06T02:55:51;15.10;84.90
69382;DHT22;56560;50.692;12.844;2023-08-06T02:58:17;15.20;84.20
69382;DHT22;56560;50.692;12.844;2023-08-06T03:00:58;15.10;84.90
69382;DHT22;56560;50.692;12.844;2023-08-06T03:03:24;15.20;84.80
69382;DHT22;56560;50.692;12.844;2023-08-06T03:05:53;15.10;85.00
69382;DHT22;56560;50.692;12.844;2023-08-06T03:08:19;15.10;85.50
69382;DHT22;56560;50.692;12.844;2023-08-06T03:10:48;15.10;85.90
69382;DHT22;56560;50.692;12.844;2023-08-06T03:13:13;15.10;86.00
69382;DHT22;56560;50.692;12.844;2023-08-06T03:15:39;15.10;85.90
69382;DHT22;56560;50.692;12.844;2023-08-06T03:18:04;15.00;86.00
69382;DHT22;56560;50.692;12.844;2023-08-06T03:20:32;15.00;86.50
69382;DHT22;56560;50.692;12.844;2023-08-06T03:22:58;15.00;86.80
69382;DHT22;56560;50.692;12.844;2023-08-06T03:25:23;14.90;87.30
69382;DHT22;56560;50.692;12.844;2023-08-06T03:27:49;14.90;87.20
69382;DHT22;56560;50.692;12.844;2023-08-06T03:30:15;14.90;87.20
69382;DHT22;56560;50.692;12.844;2023-08-06T03:32:40;14.90;87.30
69382;DHT22;56560;50.692;12.844;2023-08-06T03:35:06;14.90;87.40
69382;DHT22;56560;50.692;12.844;2023-08-06T03:37:32;14.90;87.50
69382;DHT22;56560;50.692;12.844;2023-08-06T03:39:58;14.90;87.30
69382;DHT22;56560;50.692;12.844;2023-08-06T03:42:23;14.90;87.00
69382;DHT22;56560;50.692;12.844;2023-08-06T03:44:49;14.90;87.40
69382;DHT22;56560;50.692;12.844;2023-08-06T03:47:14;14.90;87.70
69382;DHT22;56560;50.692;12.844;2023-08-06T03:49:40;14.90;88.00
69382;DHT22;56560;50.692;12.844;2023-08-06T03:52:06;14.90;88.00
69382;DHT22;56560;50.692;12.844;2023-08-06T03:54:32;14.90;87.60
69382;DHT22;56560;50.692;12.844;2023-08-06T03:56:57;14.90;87.90
69382;DHT22;56560;50.692;12.844;2023-08-06T03:59:23;14.90;88.00
69382;DHT22;56560;50.692;12.844;2023-08-06T04:01:48;14.80;88.10
69382;DHT22;56560;50.692;12.844;2023-08-06T04:04:14;14.90;88.10
69382;DHT22;56560;50.692;12.844;2023-08-06T04:06:40;14.80;87.90
69382;DHT22;56560;50.692;12.844;2023-08-06T04:09:05;14.80;88.20
69382;DHT22;56560;50.692;12.844;2023-08-06T04:11:31;14.80;87.90
69382;DHT22;56560;50.692;12.844;2023-08-06T04:13:56;14.90;87.80
69382;DHT22;56560;50.692;12.844;2023-08-06T04:16:22;14.90;87.70
69382;DHT22;56560;50.692;12.844;2023-08-06T04:18:48;14.90;87.60
69382;DHT22;56560;50.692;12.844;2023-08-06T04:21:14;14.90;87.70
69382;DHT22;56560;50.692;12.844;2023-08-06T04:23:39;14.90;87.60
69382;DHT22;56560;50.692;12.844;2023-08-06T04:26:05;14.90;88.10
69382;DHT22;56560;50.692;12.844;2023-08-06T04:28:30;14.90;88.20
69382;DHT22;56560;50.692;12.844;2023-08-06T04:30:56;15.00;88.40
69382;DHT22;56560;50.692;12.844;2023-08-06T04:33:22;15.00;88.00
69382;DHT22;56560;50.692;12.844;2023-08-06T04:35:47;15.10;88.00
69382;DHT22;56560;50.692;12.844;2023-08-06T04:38:18;15.10;88.00
69382;DHT22;56560;50.692;12.844;2023-08-06T04:40:44;15.10;87.50
69382;DHT22;56560;50.692;12.844;2023-08-06T04:43:09;15.20;87.70
69382;DHT22;56560;50.692;12.844;2023-08-06T04:45:35;15.20;87.80
69382;DHT22;56560;50.692;12.844;2023-08-06T04:48:01;15.20;87.90
69382;DHT22;56560;50.692;12.844;2023-08-06T04:50:26;15.30;87.30
69382;DHT22;56560;50.692;12.844;2023-08-06T04:52:52;15.30;85.70
69382;DHT22;56560;50.692;12.844;2023-08-06T04:55:17;15.30;85.40
69382;DHT22;56560;50.692;12.844;2023-08-06T04:57:43;15.40;86.40
69382;DHT22;56560;50.692;12.844;2023-08-06T05:00:09;15.40;86.30
69382;DHT22;56560;50.692;12.844;2023-08-06T05:02:34;15.40;85.90
69382;DHT22;56560;50.692;12.844;2023-08-06T05:05:03;15.40;85.30
69382;DHT22;56560;50.692;12.844;2023-08-06T05:07:29;15.40;84.70
69382;DHT22;56560;50.692;12.844;2023-08-06T05:09:54;15.40;84.80
69382;DHT22;56560;50.692;12.844;2023-08-06T05:12:20;15.30;85.60
69382;DHT22;56560;50.692;12.844;2023-08-06T05:14:46;15.40;84.70
69382;DHT22;56560;50.692;12.844;2023-08-06T05:17:11;15.40;84.30
69382;DHT22;56560;50.692;12.844;2023-08-06T05:19:37;15.40;84.00
69382;DHT22;56560;50.692;12.844;2023-08-06T05:22:03;15.40;84.60
69382;DHT22;56560;50.692;12.844;2023-08-06T05:24:28;15.50;84.30
69382;DHT22;56560;50.692;12.844;2023-08-06T05:26:54;15.50;84.10
69382;DHT22;56560;50.692;12.844;2023-08-06T05:29:19;15.50;83.40
69382;DHT22;56560;50.692;12.844;2023-08-06T05:31:45;15.60;83.70
69382;DHT22;56560;50.692;12.844;2023-08-06T05:34:11;15.60;83.90
69382;DHT22;56560;50.692;12.844;2023-08-06T05:36:36;15.70;83.70
69382;DHT22;56560;50.692;12.844;2023-08-06T05:39:02;15.80;83.30
69382;DHT22;56560;50.692;12.844;2023-08-06T05:41:27;15.80;82.80
69382;DHT22;56560;50.692;12.844;2023-08-06T05:43:53;15.90;83.10
69382;DHT22;56560;50.692;12.844;2023-08-06T05:46:19;15.90;81.90
69382;DHT22;56560;50.692;12.844;2023-08-06T05:48:44;15.90;82.30
69382;DHT22;56560;50.692;12.844;2023-08-06T05:51:10;15.90;82.20
69382;DHT22;56560;50.692;12.844;2023-08-06T05:53:38;16.00;82.50
69382;DHT22;56560;50.692;12.844;2023-08-06T05:56:04;16.00;83.20
69382;DHT22;56560;50.692;12.844;2023-08-06T05:58:29;16.10;82.80
69382;DHT22;56560;50.692;12.844;2023-08-06T06:00:56;16.20;82.30
69382;DHT22;56560;50.692;12.844;2023-08-06T06:03:22;16.30;82.00
69382;DHT22;56560;50.692;12.844;2023-08-06T06:05:48;16.40;81.40
69382;DHT22;56560;50.692;12.844;2023-08-06T06:08:14;16.40;80.70
69382;DHT22;56560;50.692;12.844;2023-08-06T06:10:40;16.60;81.40
69382;DHT22;56560;50.692;12.844;2023-08-06T06:13:05;16.70;80.30
69382;DHT22;56560;50.692;12.844;2023-08-06T06:15:31;16.80;80.60
69382;DHT22;56560;50.692;12.844;2023-08-06T06:17:56;16.90;79.30
69382;DHT22;56560;50.692;12.844;2023-08-06T06:20:22;17.00;79.20
69382;DHT22;56560;50.692;12.844;2023-08-06T06:22:48;17.10;78.70
69382;DHT22;56560;50.692;12.844;2023-08-06T06:25:13;17.20;78.90
69382;DHT22;56560;50.692;12.844;2023-08-06T06:27:39;17.20;78.30
69382;DHT22;56560;50.692;12.844;2023-08-06T06:30:05;17.30;78.30
69382;DHT22;56560;50.692;12.844;2023-08-06T06:32:31;17.30;78.00
69382;DHT22;56560;50.692;12.844;2023-08-06T06:34:57;17.30;78.40
69382;DHT22;56560;50.692;12.844;2023-08-06T06:37:24;17.30;78.20
69382;DHT22;56560;50.692;12.844;2023-08-06T06:39:49;17.40;77.50
69382;DHT22;56560;50.692;12.844;2023-08-06T06:42:15;17.20;76.60
69382;DHT22;56560;50.692;12.844;2023-08-06T06:44:41;16.80;77.90
69382;DHT22;56560;50.692;12.844;2023-08-06T06:47:07;16.80;79.20
69382;DHT22;56560;50.692;12.844;2023-08-06T06:49:33;16.80;80.00
69382;DHT22;56560;50.692;12.844;2023-08-06T06:51:58;16.90;79.20
69382;DHT22;56560;50.692;12.844;2023-08-06T06:54:24;17.00;79.50
69382;DHT22;56560;50.692;12.844;2023-08-06T06:56:50;17.10;77.90
69382;DHT22;56560;50.692;12.844;2023-08-06T06:59:18;17.20;77.90
69382;DHT22;56560;50.692;12.844;2023-08-06T07:01:44;17.10;77.60
69382;DHT22;56560;50.692;12.844;2023-08-06T07:04:10;17.00;77.90
69382;DHT22;56560;50.692;12.844;2023-08-06T07:06:36;17.00;78.00
69382;DHT22;56560;50.692;12.844;2023-08-06T07:09:02;17.00;78.10
69382;DHT22;56560;50.692;12.844;2023-08-06T07:11:28;16.90;77.40
69382;DHT22;56560;50.692;12.844;2023-08-06T07:13:57;17.00;78.90
69382;DHT22;56560;50.692;12.844;2023-08-06T07:16:24;17.10;79.30
69382;DHT22;56560;50.692;12.844;2023-08-06T07:18:54;17.30;78.60
69382;DHT22;56560;50.692;12.844;2023-08-06T07:21:20;17.30;76.10
69382;DHT22;56560;50.692;12.844;2023-08-06T07:23:46;17.40;76.40
69382;DHT22;56560;50.692;12.844;2023-08-06T07:26:11;17.40;75.90
69382;DHT22;56560;50.692;12.844;2023-08-06T07:28:37;17.40;76.40
69382;DHT22;56560;50.692;12.844;2023-08-06T07:31:03;17.30;75.90
69382;DHT22;56560;50.692;12.844;2023-08-06T07:33:29;17.40;76.60
69382;DHT22;56560;50.692;12.844;2023-08-06T07:35:55;17.40;76.10
69382;DHT22;56560;50.692;12.844;2023-08-06T07:38:20;17.50;75.00
69382;DHT22;56560;50.692;12.844;2023-08-06T07:40:46;17.60;76.20
69382;DHT22;56560;50.692;12.844;2023-08-06T07:43:12;17.80;75.40
69382;DHT22;56560;50.692;12.844;2023-08-06T07:45:38;17.90;74.80
69382;DHT22;56560;50.692;12.844;2023-08-06T07:48:04;18.00;74.20
69382;DHT22;56560;50.692;12.844;2023-08-06T07:50:30;18.10;74.00
69382;DHT22;56560;50.692;12.844;2023-08-06T07:52:55;18.20;74.10
69382;DHT22;56560;50.692;12.844;2023-08-06T07:55:21;18.40;73.60
69382;DHT22;56560;50.692;12.844;2023-08-06T07:57:46;18.50;73.70
69382;DHT22;56560;50.692;12.844;2023-08-06T08:00:12;18.60;71.20
69382;DHT22;56560;50.692;12.844;2023-08-06T08:02:38;18.50;71.90
69382;DHT22;56560;50.692;12.844;2023-08-06T08:05:03;18.50;72.50
69382;DHT22;56560;50.692;12.844;2023-08-06T08:07:29;18.70;71.50
69382;DHT22;56560;50.692;12.844;2023-08-06T08:09:56;18.90;71.80
69382;DHT22;56560;50.692;12.844;2023-08-06T08:12:22;19.10;71.90
69382;DHT22;56560;50.692;12.844;2023-08-06T08:14:48;19.20;70.00
69382;DHT22;56560;50.692;12.844;2023-08-06T08:17:13;19.30;70.50
69382;DHT22;56560;50.692;12.844;2023-08-06T08:19:40;19.40;70.00
69382;DHT22;56560;50.692;12.844;2023-08-06T08:22:06;19.60;69.30
69382;DHT22;56560;50.692;12.844;2023-08-06T08:24:31;19.60;68.40
69382;DHT22;56560;50.692;12.844;2023-08-06T08:26:57;19.60;68.30
69382;DHT22;56560;50.692;12.844;2023-08-06T08:29:23;19.30;67.60
69382;DHT22;56560;50.692;12.844;2023-08-06T08:31:49;19.40;68.40
69382;DHT22;56560;50.692;12.844;2023-08-06T08:34:16;19.50;69.40
69382;DHT22;56560;50.692;12.844;2023-08-06T08:36:42;19.70;69.70
69382;DHT22;56560;50.692;12.844;2023-08-06T08:39:08;19.90;68.60
69382;DHT22;56560;50.692;12.844;2023-08-06T08:41:34;20.10;68.60
69382;DHT22;56560;50.692;12.844;2023-08-06T08:44:00;20.20;66.00
69382;DHT22;56560;50.692;12.844;2023-08-06T08:46:29;20.40;67.10
69382;DHT22;56560;50.692;12.844;2023-08-06T08:48:56;20.40;63.30
69382;DHT22;56560;50.692;12.844;2023-08-06T08:51:24;20.50;63.60
69382;DHT22;56560;50.692;12.844;2023-08-06T08:53:53;20.50;64.60
69382;DHT22;56560;50.692;12.844;2023-08-06T08:56:22;20.50;65.70
69382;DHT22;56560;50.692;12.844;2023-08-06T08:58:48;20.80;64.80
69382;DHT22;56560;50.692;12.844;2023-08-06T09:01:15;21.00;62.90
69382;DHT22;56560;50.692;12.844;2023-08-06T09:03:42;21.00;64.10
69382;DHT22;56560;50.692;12.844;2023-08-06T09:06:10;21.10;64.40
69382;DHT22;56560;50.692;12.844;2023-08-06T09:08:41;21.20;63.20
69382;DHT22;56560;50.692;12.844;2023-08-06T09:11:09;21.20;62.70
69382;DHT22;56560;50.692;12.844;2023-08-06T09:13:38;21.50;61.20
69382;DHT22;56560;50.692;12.844;2023-08-06T09:16:04;21.70;62.20
69382;DHT22;56560;50.692;12.844;2023-08-06T09:18:30;21.90;61.30
69382;DHT22;56560;50.692;12.844;2023-08-06T09:20:57;22.00;62.00
69382;DHT22;56560;50.692;12.844;2023-08-06T09:23:32;22.00;60.70
69382;DHT22;56560;50.692;12.844;2023-08-06T09:25:59;21.80;58.90
69382;DHT22;56560;50.692;12.844;2023-08-06T09:28:36;21.70;60.70
69382;DHT22;56560;50.692;12.844;2023-08-06T09:31:02;21.50;60.80
69382;DHT22;56560;50.692;12.844;2023-08-06T09:33:29;21.10;61.90
69382;DHT22;56560;50.692;12.844;2023-08-06T09:35:54;20.80;61.90
69382;DHT22;56560;50.692;12.844;2023-08-06T09:38:20;20.50;63.60
69382;DHT22;56560;50.692;12.844;2023-08-06T09:40:47;20.40;63.80
69382;DHT22;56560;50.692;12.844;2023-08-06T09:43:12;20.30;63.20
69382;DHT22;56560;50.692;12.844;2023-08-06T09:45:39;19.90;65.00
69382;DHT22;56560;50.692;12.844;2023-08-06T09:48:06;19.70;66.50
69382;DHT22;56560;50.692;12.844;2023-08-06T09:50:33;19.80;65.60
69382;DHT22;56560;50.692;12.844;2023-08-06T09:53:01;20.00;65.40
69382;DHT22;56560;50.692;12.844;2023-08-06T09:55:27;20.20;64.60
69382;DHT22;56560;50.692;12.844;2023-08-06T09:57:54;19.90;65.20
69382;DHT22;56560;50.692;12.844;2023-08-06T10:00:20;19.80;65.80
69382;DHT22;56560;50.692;12.844;2023-08-06T10:02:46;19.90;65.20
69382;DHT22;56560;50.692;12.844;2023-08-06T10:05:12;19.90;65.40
69382;DHT22;56560;50.692;12.844;2023-08-06T10:07:39;19.80;65.80
69382;DHT22;56560;50.692;12.844;2023-08-06T10:10:05;19.70;66.20
69382;DHT22;56560;50.692;12.844;2023-08-06T10:12:39;19.90;65.90
69382;DHT22;56560;50.692;12.844;2023-08-06T10:15:10;20.00;65.10
69382;DHT22;56560;50.692;12.844;2023-08-06T10:17:37;20.30;65.70
69382;DHT22;56560;50.692;12.844;2023-08-06T10:20:07;20.20;64.30
69382;DHT22;56560;50.692;12.844;2023-08-06T10:22:34;20.50;64.00
69382;DHT22;56560;50.692;12.844;2023-08-06T10:25:01;20.70;62.90
69382;DHT22;56560;50.692;12.844;2023-08-06T10:30:26;21.10;61.90
69382;DHT22;56560;50.692;12.844;2023-08-06T10:32:59;21.30;60.80
69382;DHT22;56560;50.692;12.844;2023-08-06T10:43:33;21.50;61.10
69382;DHT22;56560;50.692;12.844;2023-08-06T10:46:02;21.90;59.70
69382;DHT22;56560;50.692;12.844;2023-08-06T10:48:38;22.10;58.30
69382;DHT22;56560;50.692;12.844;2023-08-06T10:51:09;22.30;58.10
69382;DHT22;56560;50.692;12.844;2023-08-06T10:53:34;22.50;58.00
69382;DHT22;56560;50.692;12.844;2023-08-06T10:56:15;22.20;57.60
69382;DHT22;56560;50.692;12.844;2023-08-06T10:58:42;21.80;59.70
69382;DHT22;56560;50.692;12.844;2023-08-06T11:01:09;21.80;59.30
69382;DHT22;56560;50.692;12.844;2023-08-06T11:03:38;21.80;58.90
69382;DHT22;56560;50.692;12.844;2023-08-06T11:06:06;21.80;59.10
69382;DHT22;56560;50.692;12.844;2023-08-06T11:08:36;21.90;58.70
69382;DHT22;56560;50.692;12.844;2023-08-06T11:11:13;22.20;58.50
69382;DHT22;56560;50.692;12.844;2023-08-06T11:13:44;22.50;56.50
69382;DHT22;56560;50.692;12.844;2023-08-06T11:16:18;22.80;56.40
69382;DHT22;56560;50.692;12.844;2023-08-06T11:18:45;22.80;56.20
69382;DHT22;56560;50.692;12.844;2023-08-06T11:21:11;22.60;55.10
69382;DHT22;56560;50.692;12.844;2023-08-06T11:23:40;22.40;54.70
69382;DHT22;56560;50.692;12.844;2023-08-06T11:26:06;22.50;56.10
69382;DHT22;56560;50.692;12.844;2023-08-06T11:28:32;22.60;56.40
69382;DHT22;56560;50.692;12.844;2023-08-06T11:30:58;23.10;55.40
69382;DHT22;56560;50.692;12.844;2023-08-06T11:33:28;23.30;53.70
69382;DHT22;56560;50.692;12.844;2023-08-06T11:35:58;23.60;54.20
69382;DHT22;56560;50.692;12.844;2023-08-06T11:38:28;24.50;53.30
69382;DHT22;56560;50.692;12.844;2023-08-06T11:40:54;25.20;50.60
69382;DHT22;56560;50.692;12.844;2023-08-06T11:43:21;25.60;49.70
69382;DHT22;56560;50.692;12.844;2023-08-06T11:45:50;25.70;47.90
69382;DHT22;56560;50.692;12.844;2023-08-06T11:48:17;25.30;49.00
69382;DHT22;56560;50.692;12.844;2023-08-06T11:50:43;25.30;49.50
69382;DHT22;56560;50.692;12.844;2023-08-06T11:53:13;25.30;49.30
69382;DHT22;56560;50.692;12.844;2023-08-06T11:55:39;25.10;48.80
69382;DHT22;56560;50.692;12.844;2023-08-06T11:58:06;24.90;49.80
69382;DHT22;56560;50.692;12.844;2023-08-06T12:00:32;24.70;49.90
69382;DHT22;56560;50.692;12.844;2023-08-06T12:02:58;24.80;50.40
69382;DHT22;56560;50.692;12.844;2023-08-06T12:05:29;25.20;49.40
69382;DHT22;56560;50.692;12.844;2023-08-06T12:07:57;25.40;49.30
69382;DHT22;56560;50.692;12.844;2023-08-06T12:10:25;25.30;48.40
69382;DHT22;56560;50.692;12.844;2023-08-06T12:12:51;25.60;48.50
69382;DHT22;56560;50.692;12.844;2023-08-06T12:15:17;26.30;47.10
69382;DHT22;56560;50.692;12.844;2023-08-06T12:17:43;26.80;45.50
69382;DHT22;56560;50.692;12.844;2023-08-06T12:20:10;27.30;45.00
69382;DHT22;56560;50.692;12.844;2023-08-06T12:22:36;27.50;44.50
69382;DHT22;56560;50.692;12.844;2023-08-06T12:25:06;27.60;43.60
69382;DHT22;56560;50.692;12.844;2023-08-06T12:27:34;27.00;45.70
69382;DHT22;56560;50.692;12.844;2023-08-06T12:30:00;26.80;44.70
69382;DHT22;56560;50.692;12.844;2023-08-06T12:32:26;27.30;43.40
69382;DHT22;56560;50.692;12.844;2023-08-06T12:34:51;28.10;43.00
69382;DHT22;56560;50.692;12.844;2023-08-06T12:37:17;28.50;42.30
69382;DHT22;56560;50.692;12.844;2023-08-06T12:39:43;28.20;41.30
69382;DHT22;56560;50.692;12.844;2023-08-06T12:42:08;27.70;42.30
69382;DHT22;56560;50.692;12.844;2023-08-06T12:44:35;26.80;43.20
69382;DHT22;56560;50.692;12.844;2023-08-06T12:47:01;25.80;46.10
69382;DHT22;56560;50.692;12.844;2023-08-06T12:49:32;25.30;46.80
69382;DHT22;56560;50.692;12.844;2023-08-06T12:51:58;25.60;47.00
69382;DHT22;56560;50.692;12.844;2023-08-06T12:54:25;25.80;45.90
69382;DHT22;56560;50.692;12.844;2023-08-06T12:56:51;26.20;45.50
69382;DHT22;56560;50.692;12.844;2023-08-06T12:59:18;26.60;44.80
69382;DHT22;56560;50.692;12.844;2023-08-06T13:01:45;27.60;42.40
69382;DHT22;56560;50.692;12.844;2023-08-06T13:04:12;28.90;42.60
69382;DHT22;56560;50.692;12.844;2023-08-06T13:06:38;29.60;38.80
69382;DHT22;56560;50.692;12.844;2023-08-06T13:09:06;29.70;39.10
69382;DHT22;56560;50.692;12.844;2023-08-06T13:11:32;30.00;38.30
69382;DHT22;56560;50.692;12.844;2023-08-06T13:14:06;30.20;38.40
69382;DHT22;56560;50.692;12.844;2023-08-06T13:16:33;30.20;38.30
69382;DHT22;56560;50.692;12.844;2023-08-06T13:18:59;29.90;36.90
69382;DHT22;56560;50.692;12.844;2023-08-06T13:21:30;29.30;39.10
69382;DHT22;56560;50.692;12.844;2023-08-06T13:23:56;27.80;41.50
69382;DHT22;56560;50.692;12.844;2023-08-06T13:26:22;27.00;42.50
69382;DHT22;56560;50.692;12.844;2023-08-06T13:28:47;26.90;42.70
69382;DHT22;56560;50.692;12.844;2023-08-06T13:31:14;27.00;43.00
69382;DHT22;56560;50.692;12.844;2023-08-06T13:33:40;27.00;43.60
69382;DHT22;56560;50.692;12.844;2023-08-06T13:36:05;26.90;43.80
69382;DHT22;56560;50.692;12.844;2023-08-06T13:38:31;26.60;43.90
69382;DHT22;56560;50.692;12.844;2023-08-06T13:40:57;26.60;43.30
69382;DHT22;56560;50.692;12.844;2023-08-06T13:43:24;26.70;43.50
69382;DHT22;56560;50.692;12.844;2023-08-06T13:45:49;26.90;43.60
69382;DHT22;56560;50.692;12.844;2023-08-06T13:48:15;26.70;43.60
69382;DHT22;56560;50.692;12.844;2023-08-06T13:50:41;26.40;44.10
69382;DHT22;56560;50.692;12.844;2023-08-06T13:53:06;26.50;44.00
69382;DHT22;56560;50.692;12.844;2023-08-06T13:55:32;26.80;43.50
69382;DHT22;56560;50.692;12.844;2023-08-06T13:57:57;27.70;41.50
69382;DHT22;56560;50.692;12.844;2023-08-06T14:00:23;28.20;40.70
69382;DHT22;56560;50.692;12.844;2023-08-06T14:02:49;28.50;40.00
69382;DHT22;56560;50.692;12.844;2023-08-06T14:05:14;28.30;40.70
69382;DHT22;56560;50.692;12.844;2023-08-06T14:07:40;28.70;40.90
69382;DHT22;56560;50.692;12.844;2023-08-06T14:10:06;29.90;39.20
69382;DHT22;56560;50.692;12.844;2023-08-06T14:12:32;29.90;37.30
69382;DHT22;56560;50.692;12.844;2023-08-06T14:14:58;28.90;39.10
69382;DHT22;56560;50.692;12.844;2023-08-06T14:17:24;27.90;40.90
69382;DHT22;56560;50.692;12.844;2023-08-06T14:19:50;26.60;42.30
69382;DHT22;56560;50.692;12.844;2023-08-06T14:22:15;25.50;44.10
69382;DHT22;56560;50.692;12.844;2023-08-06T14:24:41;24.50;45.80
69382;DHT22;56560;50.692;12.844;2023-08-06T14:27:07;24.10;47.60
69382;DHT22;56560;50.692;12.844;2023-08-06T14:29:32;23.90;47.10
69382;DHT22;56560;50.692;12.844;2023-08-06T14:31:58;23.90;48.40
69382;DHT22;56560;50.692;12.844;2023-08-06T14:34:24;23.80;46.60
69382;DHT22;56560;50.692;12.844;2023-08-06T14:36:49;23.70;48.30
69382;DHT22;56560;50.692;12.844;2023-08-06T14:39:15;23.50;49.00
69382;DHT22;56560;50.692;12.844;2023-08-06T14:41:41;23.30;47.60
69382;DHT22;56560;50.692;12.844;2023-08-06T14:44:06;22.80;48.20
69382;DHT22;56560;50.692;12.844;2023-08-06T14:46:33;22.50;49.70
69382;DHT22;56560;50.692;12.844;2023-08-06T14:48:59;22.00;49.30
69382;DHT22;56560;50.692;12.844;2023-08-06T14:51:24;21.60;50.20
69382;DHT22;56560;50.692;12.844;2023-08-06T14:53:50;21.20;51.90
69382;DHT22;56560;50.692;12.844;2023-08-06T14:56:16;20.90;54.40
69382;DHT22;56560;50.692;12.844;2023-08-06T14:58:41;20.50;57.90
69382;DHT22;56560;50.692;12.844;2023-08-06T15:01:07;20.10;59.90
69382;DHT22;56560;50.692;12.844;2023-08-06T15:03:33;19.50;64.40
69382;DHT22;56560;50.692;12.844;2023-08-06T15:05:59;19.20;66.20
69382;DHT22;56560;50.692;12.844;2023-08-06T15:08:25;19.00;66.20
69382;DHT22;56560;50.692;12.844;2023-08-06T15:10:53;19.00;67.30
69382;DHT22;56560;50.692;12.844;2023-08-06T15:13:19;19.00;69.20
69382;DHT22;56560;50.692;12.844;2023-08-06T15:15:49;19.10;68.60
69382;DHT22;56560;50.692;12.844;2023-08-06T15:18:14;19.40;67.80
69382;DHT22;56560;50.692;12.844;2023-08-06T15:20:40;19.90;65.60
69382;DHT22;56560;50.692;12.844;2023-08-06T15:23:05;20.60;66.60
69382;DHT22;56560;50.692;12.844;2023-08-06T15:25:31;21.80;62.00